Portland, Oregon
Traffic Map
Current Weather Conditions
Portland, Oregon
Few Clouds
Few Clouds
31°
Feels Like: 31°
Wind Chill: 31° Ceiling: Unl
Heat Index: 31° Visibility: 10mi
Dew Point: 14° Wind: 7mph
Humidity: 36% Direction: 330° (NNW)
Pressure: 30.01in Gusts: 0mph
Raw Report DataKPDX 280053Z 33006KT 10SM FEW120 31/14 A3001 RMK AO2 SLP160 T03060139
Traffic Incident Summary
Active as of:
Severity:
Category:
InformationThere was an issue retrieving the traffic information for this location. Please try a different location or try again shortly.
Advertisements
Track Severe Weather on mobile